sensor_id;sensor_type;location;lat;lon;timestamp;pressure;altitude;pressure_sealevel;temperature;humidity
45441;BME280;31189;38.790;-77.084;2023-07-08T00:01:52;100697.07;;;33.13;53.98
45441;BME280;31189;38.790;-77.084;2023-07-08T00:04:17;100696.70;;;32.54;54.12
45441;BME280;31189;38.790;-77.084;2023-07-08T00:06:43;100699.10;;;33.08;53.00
45441;BME280;31189;38.790;-77.084;2023-07-08T00:09:11;100710.00;;;33.33;53.40
45441;BME280;31189;38.790;-77.084;2023-07-08T00:11:34;100722.89;;;33.18;52.69
45441;BME280;31189;38.790;-77.084;2023-07-08T00:14:00;100724.49;;;32.95;52.39
45441;BME280;31189;38.790;-77.084;2023-07-08T00:16:25;100730.36;;;32.50;53.72
45441;BME280;31189;38.790;-77.084;2023-07-08T00:18:51;100734.67;;;33.27;52.65
45441;BME280;31189;38.790;-77.084;2023-07-08T00:21:17;100739.87;;;33.35;52.59
45441;BME280;31189;38.790;-77.084;2023-07-08T00:23:44;100741.24;;;33.54;53.45
45441;BME280;31189;38.790;-77.084;2023-07-08T00:26:11;100741.53;;;33.48;53.18
45441;BME280;31189;38.790;-77.084;2023-07-08T00:28:32;100741.78;;;33.23;53.01
45441;BME280;31189;38.790;-77.084;2023-07-08T00:30:58;100742.28;;;33.50;53.17
45441;BME280;31189;38.790;-77.084;2023-07-08T00:33:23;100738.01;;;33.11;54.27
45441;BME280;31189;38.790;-77.084;2023-07-08T00:35:48;100734.05;;;33.40;54.29
45441;BME280;31189;38.790;-77.084;2023-07-08T00:38:15;100732.66;;;33.44;54.09
45441;BME280;31189;38.790;-77.084;2023-07-08T00:40:49;100736.24;;;33.18;54.14
45441;BME280;31189;38.790;-77.084;2023-07-08T00:43:07;100735.00;;;33.41;54.42
45441;BME280;31189;38.790;-77.084;2023-07-08T00:45:37;100731.07;;;33.33;54.39
45441;BME280;31189;38.790;-77.084;2023-07-08T00:47:58;100726.35;;;33.21;54.17
45441;BME280;31189;38.790;-77.084;2023-07-08T00:50:21;100726.81;;;33.17;54.31
45441;BME280;31189;38.790;-77.084;2023-07-08T00:52:46;100735.82;;;33.15;54.98
45441;BME280;31189;38.790;-77.084;2023-07-08T00:55:11;100737.70;;;33.16;55.29
45441;BME280;31189;38.790;-77.084;2023-07-08T00:57:39;100736.66;;;32.87;55.78
45441;BME280;31189;38.790;-77.084;2023-07-08T01:00:04;100735.81;;;31.96;58.18
45441;BME280;31189;38.790;-77.084;2023-07-08T01:02:28;100736.45;;;32.18;57.27
45441;BME280;31189;38.790;-77.084;2023-07-08T01:04:56;100738.63;;;32.30;57.06
45441;BME280;31189;38.790;-77.084;2023-07-08T01:07:18;100742.32;;;32.38;56.48
45441;BME280;31189;38.790;-77.084;2023-07-08T01:09:45;100747.50;;;32.71;55.70
45441;BME280;31189;38.790;-77.084;2023-07-08T01:12:12;100753.94;;;32.78;55.85
45441;BME280;31189;38.790;-77.084;2023-07-08T01:14:36;100761.77;;;32.28;57.18
45441;BME280;31189;38.790;-77.084;2023-07-08T01:17:00;100767.22;;;32.36;56.99
45441;BME280;31189;38.790;-77.084;2023-07-08T01:19:25;100762.91;;;32.26;57.40
45441;BME280;31189;38.790;-77.084;2023-07-08T01:21:58;100767.69;;;32.38;57.25
45441;BME280;31189;38.790;-77.084;2023-07-08T01:24:15;100774.86;;;32.20;58.42
45441;BME280;31189;38.790;-77.084;2023-07-08T01:26:43;100776.18;;;32.37;56.76
45441;BME280;31189;38.790;-77.084;2023-07-08T01:29:07;100777.49;;;32.09;57.85
45441;BME280;31189;38.790;-77.084;2023-07-08T01:31:32;100774.45;;;32.26;56.83
45441;BME280;31189;38.790;-77.084;2023-07-08T01:33:58;100782.02;;;32.35;57.38
45441;BME280;31189;38.790;-77.084;2023-07-08T01:36:23;100791.24;;;32.21;57.42
45441;BME280;31189;38.790;-77.084;2023-07-08T01:38:49;100799.84;;;32.45;57.15
45441;BME280;31189;38.790;-77.084;2023-07-08T01:41:16;100803.33;;;32.05;57.56
45441;BME280;31189;38.790;-77.084;2023-07-08T01:43:39;100808.23;;;32.25;57.17
45441;BME280;31189;38.790;-77.084;2023-07-08T01:46:11;100817.66;;;32.16;56.90
45441;BME280;31189;38.790;-77.084;2023-07-08T01:48:36;100826.62;;;32.50;56.82
45441;BME280;31189;38.790;-77.084;2023-07-08T01:51:00;100831.31;;;32.19;57.46
45441;BME280;31189;38.790;-77.084;2023-07-08T01:53:28;100831.32;;;32.06;57.69
45441;BME280;31189;38.790;-77.084;2023-07-08T01:55:47;100828.76;;;32.12;59.61
45441;BME280;31189;38.790;-77.084;2023-07-08T01:58:12;100824.97;;;30.50;61.37
45441;BME280;31189;38.790;-77.084;2023-07-08T02:00:37;100827.76;;;31.95;57.39
45441;BME280;31189;38.790;-77.084;2023-07-08T02:03:03;100830.28;;;31.76;57.47
45441;BME280;31189;38.790;-77.084;2023-07-08T02:05:28;100828.73;;;32.02;57.11
45441;BME280;31189;38.790;-77.084;2023-07-08T02:07:53;100826.75;;;31.59;56.88
45441;BME280;31189;38.790;-77.084;2023-07-08T02:10:18;100825.96;;;31.03;61.88
45441;BME280;31189;38.790;-77.084;2023-07-08T02:12:44;100824.29;;;31.47;60.31
45441;BME280;31189;38.790;-77.084;2023-07-08T02:15:10;100822.90;;;31.96;59.47
45441;BME280;31189;38.790;-77.084;2023-07-08T02:17:35;100814.99;;;31.57;59.20
45441;BME280;31189;38.790;-77.084;2023-07-08T02:20:00;100804.02;;;30.59;63.60
45441;BME280;31189;38.790;-77.084;2023-07-08T02:22:25;100808.97;;;31.73;59.01
45441;BME280;31189;38.790;-77.084;2023-07-08T02:24:51;100814.94;;;32.03;59.13
45441;BME280;31189;38.790;-77.084;2023-07-08T02:27:17;100817.67;;;32.08;60.23
45441;BME280;31189;38.790;-77.084;2023-07-08T02:29:42;100816.95;;;31.87;59.64
45441;BME280;31189;38.790;-77.084;2023-07-08T02:32:08;100817.21;;;31.95;59.27
45441;BME280;31189;38.790;-77.084;2023-07-08T02:34:32;100814.07;;;31.79;59.69
45441;BME280;31189;38.790;-77.084;2023-07-08T02:36:58;100814.57;;;31.73;59.65
45441;BME280;31189;38.790;-77.084;2023-07-08T02:39:24;100813.99;;;32.01;59.38
45441;BME280;31189;38.790;-77.084;2023-07-08T02:41:49;100815.00;;;32.06;58.85
45441;BME280;31189;38.790;-77.084;2023-07-08T02:44:15;100820.46;;;31.42;61.16
45441;BME280;31189;38.790;-77.084;2023-07-08T02:46:40;100812.53;;;30.56;61.89
45441;BME280;31189;38.790;-77.084;2023-07-08T02:49:06;100812.11;;;30.87;60.74
45441;BME280;31189;38.790;-77.084;2023-07-08T02:51:31;100813.40;;;31.50;60.49
45441;BME280;31189;38.790;-77.084;2023-07-08T02:53:57;100814.07;;;30.25;64.82
45441;BME280;31189;38.790;-77.084;2023-07-08T02:56:23;100822.85;;;29.16;69.91
45441;BME280;31189;38.790;-77.084;2023-07-08T02:58:49;100826.04;;;30.72;63.97
45441;BME280;31189;38.790;-77.084;2023-07-08T03:01:15;100826.38;;;31.70;61.58
45441;BME280;31189;38.790;-77.084;2023-07-08T03:03:40;100821.16;;;31.57;59.85
45441;BME280;31189;38.790;-77.084;2023-07-08T03:06:05;100822.37;;;31.55;59.64
45441;BME280;31189;38.790;-77.084;2023-07-08T03:08:30;100821.98;;;31.89;59.83
45441;BME280;31189;38.790;-77.084;2023-07-08T03:10:57;100827.16;;;31.90;59.50
45441;BME280;31189;38.790;-77.084;2023-07-08T03:13:21;100831.35;;;31.38;61.93
45441;BME280;31189;38.790;-77.084;2023-07-08T03:15:46;100833.99;;;31.64;60.07
45441;BME280;31189;38.790;-77.084;2023-07-08T03:18:12;100838.63;;;31.94;59.82
45441;BME280;31189;38.790;-77.084;2023-07-08T03:20:40;100840.16;;;31.67;60.61
45441;BME280;31189;38.790;-77.084;2023-07-08T03:23:03;100838.89;;;31.77;60.40
45441;BME280;31189;38.790;-77.084;2023-07-08T03:25:28;100839.74;;;31.20;62.76
45441;BME280;31189;38.790;-77.084;2023-07-08T03:27:54;100841.16;;;31.18;62.32
45441;BME280;31189;38.790;-77.084;2023-07-08T03:30:19;100834.16;;;31.34;62.27
45441;BME280;31189;38.790;-77.084;2023-07-08T03:32:44;100831.00;;;31.37;62.96
45441;BME280;31189;38.790;-77.084;2023-07-08T03:35:10;100832.36;;;31.36;62.71
45441;BME280;31189;38.790;-77.084;2023-07-08T03:37:35;100834.14;;;31.26;61.41
45441;BME280;31189;38.790;-77.084;2023-07-08T03:40:01;100836.76;;;31.55;61.31
45441;BME280;31189;38.790;-77.084;2023-07-08T03:42:27;100839.18;;;30.99;62.70
45441;BME280;31189;38.790;-77.084;2023-07-08T03:44:52;100837.85;;;31.44;61.55
45441;BME280;31189;38.790;-77.084;2023-07-08T03:47:18;100837.55;;;31.53;61.80
45441;BME280;31189;38.790;-77.084;2023-07-08T03:49:43;100839.96;;;31.14;62.27
45441;BME280;31189;38.790;-77.084;2023-07-08T03:52:14;100840.78;;;31.40;62.21
45441;BME280;31189;38.790;-77.084;2023-07-08T03:54:33;100837.53;;;31.22;61.99
45441;BME280;31189;38.790;-77.084;2023-07-08T03:56:59;100830.80;;;30.84;62.86
45441;BME280;31189;38.790;-77.084;2023-07-08T03:59:25;100826.54;;;31.20;62.37
45441;BME280;31189;38.790;-77.084;2023-07-08T04:01:51;100823.49;;;30.86;62.51
45441;BME280;31189;38.790;-77.084;2023-07-08T04:04:16;100818.96;;;30.67;63.56
45441;BME280;31189;38.790;-77.084;2023-07-08T04:06:42;100818.13;;;30.89;62.87
45441;BME280;31189;38.790;-77.084;2023-07-08T04:09:07;100816.57;;;30.88;62.74
45441;BME280;31189;38.790;-77.084;2023-07-08T04:11:32;100820.62;;;31.14;62.77
45441;BME280;31189;38.790;-77.084;2023-07-08T04:13:57;100825.00;;;31.17;63.48
45441;BME280;31189;38.790;-77.084;2023-07-08T04:16:27;100829.42;;;31.64;61.67
45441;BME280;31189;38.790;-77.084;2023-07-08T04:18:48;100828.88;;;31.47;61.83
45441;BME280;31189;38.790;-77.084;2023-07-08T04:21:15;100829.33;;;31.24;61.69
45441;BME280;31189;38.790;-77.084;2023-07-08T04:23:39;100829.73;;;30.97;63.22
45441;BME280;31189;38.790;-77.084;2023-07-08T04:26:04;100843.62;;;31.01;62.68
45441;BME280;31189;38.790;-77.084;2023-07-08T04:28:30;100851.31;;;30.99;63.98
45441;BME280;31189;38.790;-77.084;2023-07-08T04:30:55;100851.28;;;30.90;64.63
45441;BME280;31189;38.790;-77.084;2023-07-08T04:33:21;100844.50;;;30.72;64.50
45441;BME280;31189;38.790;-77.084;2023-07-08T04:35:47;100840.26;;;30.70;64.71
45441;BME280;31189;38.790;-77.084;2023-07-08T04:38:16;100844.48;;;31.03;63.83
45441;BME280;31189;38.790;-77.084;2023-07-08T04:40:37;100856.14;;;31.24;63.51
45441;BME280;31189;38.790;-77.084;2023-07-08T04:43:03;100854.76;;;30.92;63.93
45441;BME280;31189;38.790;-77.084;2023-07-08T04:45:29;100845.65;;;30.35;66.69
45441;BME280;31189;38.790;-77.084;2023-07-08T04:47:54;100849.02;;;30.86;65.14
45441;BME280;31189;38.790;-77.084;2023-07-08T04:50:19;100858.28;;;30.75;64.82
45441;BME280;31189;38.790;-77.084;2023-07-08T04:52:45;100859.38;;;31.10;64.67
45441;BME280;31189;38.790;-77.084;2023-07-08T04:55:12;100855.45;;;30.54;65.13
45441;BME280;31189;38.790;-77.084;2023-07-08T04:57:36;100862.14;;;30.56;64.61
45441;BME280;31189;38.790;-77.084;2023-07-08T05:00:01;100865.37;;;31.21;64.24
45441;BME280;31189;38.790;-77.084;2023-07-08T05:02:27;100867.09;;;30.57;66.40
45441;BME280;31189;38.790;-77.084;2023-07-08T05:04:52;100862.76;;;30.75;65.80
45441;BME280;31189;38.790;-77.084;2023-07-08T05:07:18;100859.23;;;29.65;69.80
45441;BME280;31189;38.790;-77.084;2023-07-08T05:09:43;100859.26;;;30.33;67.65
45441;BME280;31189;38.790;-77.084;2023-07-08T05:12:09;100855.23;;;30.69;66.01
45441;BME280;31189;38.790;-77.084;2023-07-08T05:14:34;100850.79;;;30.73;65.12
45441;BME280;31189;38.790;-77.084;2023-07-08T05:16:59;100852.86;;;31.21;64.28
45441;BME280;31189;38.790;-77.084;2023-07-08T05:19:25;100850.07;;;30.81;64.72
45441;BME280;31189;38.790;-77.084;2023-07-08T05:21:51;100849.06;;;31.22;62.83
45441;BME280;31189;38.790;-77.084;2023-07-08T05:24:16;100849.71;;;31.33;62.37
45441;BME280;31189;38.790;-77.084;2023-07-08T05:26:41;100851.87;;;31.43;62.33
45441;BME280;31189;38.790;-77.084;2023-07-08T05:29:06;100852.04;;;31.43;62.49
45441;BME280;31189;38.790;-77.084;2023-07-08T05:31:33;100854.18;;;31.22;62.29
45441;BME280;31189;38.790;-77.084;2023-07-08T05:33:57;100852.19;;;31.03;62.75
45441;BME280;31189;38.790;-77.084;2023-07-08T05:36:23;100844.54;;;30.72;63.53
45441;BME280;31189;38.790;-77.084;2023-07-08T05:38:48;100839.93;;;31.02;64.06
45441;BME280;31189;38.790;-77.084;2023-07-08T05:41:14;100835.40;;;31.27;62.72
45441;BME280;31189;38.790;-77.084;2023-07-08T05:43:39;100832.92;;;30.96;62.87
45441;BME280;31189;38.790;-77.084;2023-07-08T05:46:05;100832.52;;;30.79;63.31
45441;BME280;31189;38.790;-77.084;2023-07-08T05:48:30;100833.20;;;30.19;66.24
45441;BME280;31189;38.790;-77.084;2023-07-08T05:50:56;100822.70;;;30.53;64.77
45441;BME280;31189;38.790;-77.084;2023-07-08T05:53:20;100817.53;;;31.19;63.67
45441;BME280;31189;38.790;-77.084;2023-07-08T05:55:47;100816.30;;;30.79;64.63
45441;BME280;31189;38.790;-77.084;2023-07-08T05:58:12;100818.42;;;30.56;64.91
45441;BME280;31189;38.790;-77.084;2023-07-08T06:00:38;100822.30;;;30.79;63.44
45441;BME280;31189;38.790;-77.084;2023-07-08T06:03:03;100818.76;;;31.02;62.86
45441;BME280;31189;38.790;-77.084;2023-07-08T06:05:29;100816.76;;;31.21;63.44
45441;BME280;31189;38.790;-77.084;2023-07-08T06:07:54;100819.79;;;31.04;63.12
45441;BME280;31189;38.790;-77.084;2023-07-08T06:10:20;100820.24;;;30.96;63.32
45441;BME280;31189;38.790;-77.084;2023-07-08T06:12:46;100830.38;;;30.62;64.04
45441;BME280;31189;38.790;-77.084;2023-07-08T06:15:12;100833.64;;;30.90;62.94
45441;BME280;31189;38.790;-77.084;2023-07-08T06:17:37;100824.45;;;30.76;63.64
45441;BME280;31189;38.790;-77.084;2023-07-08T06:20:03;100818.51;;;30.93;63.40
45441;BME280;31189;38.790;-77.084;2023-07-08T06:22:29;100812.81;;;30.37;64.86
45441;BME280;31189;38.790;-77.084;2023-07-08T06:24:54;100805.89;;;30.59;64.05
45441;BME280;31189;38.790;-77.084;2023-07-08T06:27:19;100799.31;;;30.47;64.43
45441;BME280;31189;38.790;-77.084;2023-07-08T06:29:45;100801.06;;;30.67;63.93
45441;BME280;31189;38.790;-77.084;2023-07-08T06:32:10;100807.97;;;29.05;69.88
45441;BME280;31189;38.790;-77.084;2023-07-08T06:34:36;100815.33;;;27.00;79.15
45441;BME280;31189;38.790;-77.084;2023-07-08T06:37:01;100816.10;;;29.48;69.27
45441;BME280;31189;38.790;-77.084;2023-07-08T06:39:26;100818.22;;;29.23;69.58
45441;BME280;31189;38.790;-77.084;2023-07-08T06:41:51;100821.76;;;30.06;66.93
45441;BME280;31189;38.790;-77.084;2023-07-08T06:44:16;100816.88;;;30.62;65.63
45441;BME280;31189;38.790;-77.084;2023-07-08T06:46:42;100809.38;;;30.56;65.37
45441;BME280;31189;38.790;-77.084;2023-07-08T06:49:07;100809.72;;;30.70;64.70
45441;BME280;31189;38.790;-77.084;2023-07-08T06:51:33;100810.07;;;30.04;65.70
45441;BME280;31189;38.790;-77.084;2023-07-08T06:53:58;100809.74;;;30.35;65.40
45441;BME280;31189;38.790;-77.084;2023-07-08T06:56:24;100806.41;;;30.39;64.66
45441;BME280;31189;38.790;-77.084;2023-07-08T06:58:50;100802.17;;;30.41;64.59
45441;BME280;31189;38.790;-77.084;2023-07-08T07:01:15;100801.85;;;30.74;64.37
45441;BME280;31189;38.790;-77.084;2023-07-08T07:03:41;100805.78;;;30.86;63.72
45441;BME280;31189;38.790;-77.084;2023-07-08T07:06:06;100807.56;;;30.82;63.89
45441;BME280;31189;38.790;-77.084;2023-07-08T07:08:32;100808.49;;;30.86;63.44
45441;BME280;31189;38.790;-77.084;2023-07-08T07:10:57;100809.62;;;30.90;63.44
45441;BME280;31189;38.790;-77.084;2023-07-08T07:13:23;100810.90;;;30.36;63.85
45441;BME280;31189;38.790;-77.084;2023-07-08T07:15:48;100810.65;;;30.34;64.55
45441;BME280;31189;38.790;-77.084;2023-07-08T07:18:14;100811.79;;;30.61;63.51
45441;BME280;31189;38.790;-77.084;2023-07-08T07:20:46;100814.34;;;30.45;64.02
45441;BME280;31189;38.790;-77.084;2023-07-08T07:23:04;100816.92;;;30.32;64.67
45441;BME280;31189;38.790;-77.084;2023-07-08T07:25:30;100817.29;;;30.46;64.43
45441;BME280;31189;38.790;-77.084;2023-07-08T07:27:55;100813.81;;;30.59;63.98
45441;BME280;31189;38.790;-77.084;2023-07-08T07:30:20;100812.39;;;30.71;63.82
45441;BME280;31189;38.790;-77.084;2023-07-08T07:32:45;100813.37;;;30.47;63.67
45441;BME280;31189;38.790;-77.084;2023-07-08T07:35:12;100812.10;;;30.70;63.49
45441;BME280;31189;38.790;-77.084;2023-07-08T07:37:36;100813.91;;;30.53;63.84
45441;BME280;31189;38.790;-77.084;2023-07-08T07:40:01;100810.89;;;30.61;63.87
45441;BME280;31189;38.790;-77.084;2023-07-08T07:42:28;100806.51;;;30.85;63.13
45441;BME280;31189;38.790;-77.084;2023-07-08T07:44:52;100804.07;;;30.66;63.20
45441;BME280;31189;38.790;-77.084;2023-07-08T07:47:18;100802.84;;;30.95;63.03
45441;BME280;31189;38.790;-77.084;2023-07-08T07:49:43;100800.50;;;30.46;64.00
45441;BME280;31189;38.790;-77.084;2023-07-08T07:52:08;100796.17;;;30.72;64.19
45441;BME280;31189;38.790;-77.084;2023-07-08T07:54:34;100793.26;;;29.81;66.58
45441;BME280;31189;38.790;-77.084;2023-07-08T07:56:59;100789.98;;;30.03;65.15
45441;BME280;31189;38.790;-77.084;2023-07-08T07:59:25;100789.37;;;30.12;65.29
45441;BME280;31189;38.790;-77.084;2023-07-08T08:01:50;100787.51;;;30.53;65.69
45441;BME280;31189;38.790;-77.084;2023-07-08T08:04:16;100787.07;;;30.09;65.49
45441;BME280;31189;38.790;-77.084;2023-07-08T08:06:41;100783.77;;;29.91;66.08
45441;BME280;31189;38.790;-77.084;2023-07-08T08:09:07;100781.30;;;29.53;67.70
45441;BME280;31189;38.790;-77.084;2023-07-08T08:11:33;100780.72;;;29.68;68.15
45441;BME280;31189;38.790;-77.084;2023-07-08T08:13:59;100785.81;;;30.02;67.59
45441;BME280;31189;38.790;-77.084;2023-07-08T08:16:24;100790.81;;;29.83;66.70
45441;BME280;31189;38.790;-77.084;2023-07-08T08:18:49;100788.01;;;29.88;66.24
45441;BME280;31189;38.790;-77.084;2023-07-08T08:21:15;100780.71;;;29.84;66.62
45441;BME280;31189;38.790;-77.084;2023-07-08T08:23:41;100775.37;;;30.22;65.27
45441;BME280;31189;38.790;-77.084;2023-07-08T08:26:06;100769.36;;;30.43;64.89
45441;BME280;31189;38.790;-77.084;2023-07-08T08:28:32;100765.92;;;30.23;65.14
45441;BME280;31189;38.790;-77.084;2023-07-08T08:30:57;100766.56;;;30.34;64.72
45441;BME280;31189;38.790;-77.084;2023-07-08T08:33:23;100765.44;;;30.21;64.59
45441;BME280;31189;38.790;-77.084;2023-07-08T08:35:48;100765.98;;;30.55;63.96
45441;BME280;31189;38.790;-77.084;2023-07-08T08:38:14;100767.60;;;30.00;65.48
45441;BME280;31189;38.790;-77.084;2023-07-08T08:40:40;100768.97;;;29.78;66.24
45441;BME280;31189;38.790;-77.084;2023-07-08T08:43:06;100771.75;;;29.75;66.89
45441;BME280;31189;38.790;-77.084;2023-07-08T08:45:34;100775.79;;;30.10;65.69
45441;BME280;31189;38.790;-77.084;2023-07-08T08:47:58;100778.30;;;29.95;65.31
45441;BME280;31189;38.790;-77.084;2023-07-08T08:50:28;100773.37;;;30.19;65.44
45441;BME280;31189;38.790;-77.084;2023-07-08T08:52:46;100773.94;;;30.03;64.96
45441;BME280;31189;38.790;-77.084;2023-07-08T08:55:12;100772.97;;;30.21;63.86
45441;BME280;31189;38.790;-77.084;2023-07-08T08:57:41;100775.69;;;30.27;63.44
45441;BME280;31189;38.790;-77.084;2023-07-08T09:00:03;100778.63;;;30.48;62.93
45441;BME280;31189;38.790;-77.084;2023-07-08T09:02:33;100777.61;;;30.30;62.64
45441;BME280;31189;38.790;-77.084;2023-07-08T09:05:02;100778.44;;;30.64;62.47
45441;BME280;31189;38.790;-77.084;2023-07-08T09:07:20;100775.63;;;30.42;62.12
45441;BME280;31189;38.790;-77.084;2023-07-08T09:09:48;100774.70;;;30.58;62.09
45441;BME280;31189;38.790;-77.084;2023-07-08T09:12:14;100777.05;;;30.28;62.64
45441;BME280;31189;38.790;-77.084;2023-07-08T09:14:35;100778.88;;;30.41;62.29
45441;BME280;31189;38.790;-77.084;2023-07-08T09:17:11;100776.70;;;30.21;62.73
45441;BME280;31189;38.790;-77.084;2023-07-08T09:19:30;100774.62;;;29.81;63.61
45441;BME280;31189;38.790;-77.084;2023-07-08T09:21:59;100775.62;;;30.37;62.18
45441;BME280;31189;38.790;-77.084;2023-07-08T09:24:21;100781.68;;;30.22;62.60
45441;BME280;31189;38.790;-77.084;2023-07-08T09:26:42;100783.06;;;29.92;64.21
45441;BME280;31189;38.790;-77.084;2023-07-08T09:29:09;100784.19;;;30.48;62.58
45441;BME280;31189;38.790;-77.084;2023-07-08T09:31:37;100786.96;;;30.53;62.18
45441;BME280;31189;38.790;-77.084;2023-07-08T09:34:08;100787.90;;;30.36;62.37
45441;BME280;31189;38.790;-77.084;2023-07-08T09:36:25;100788.98;;;30.43;62.31
45441;BME280;31189;38.790;-77.084;2023-07-08T09:38:50;100790.17;;;30.19;62.73
45441;BME280;31189;38.790;-77.084;2023-07-08T09:43:40;100797.17;;;30.09;63.38
45441;BME280;31189;38.790;-77.084;2023-07-08T09:46:11;100798.68;;;30.20;63.29
45441;BME280;31189;38.790;-77.084;2023-07-08T09:48:35;100796.24;;;30.08;64.05
45441;BME280;31189;38.790;-77.084;2023-07-08T09:50:57;100794.37;;;30.08;63.63
45441;BME280;31189;38.790;-77.084;2023-07-08T09:53:21;100792.37;;;30.34;63.63
45441;BME280;31189;38.790;-77.084;2023-07-08T09:55:47;100789.31;;;30.14;63.62
45441;BME280;31189;38.790;-77.084;2023-07-08T09:58:15;100793.37;;;29.99;64.24
45441;BME280;31189;38.790;-77.084;2023-07-08T10:00:40;100798.88;;;30.22;64.51
45441;BME280;31189;38.790;-77.084;2023-07-08T10:03:08;100803.62;;;30.07;64.31
45441;BME280;31189;38.790;-77.084;2023-07-08T10:05:33;100804.99;;;30.39;63.96
45441;BME280;31189;38.790;-77.084;2023-07-08T10:07:56;100807.11;;;30.18;63.84
45441;BME280;31189;38.790;-77.084;2023-07-08T10:10:24;100810.54;;;29.46;65.52
45441;BME280;31189;38.790;-77.084;2023-07-08T10:12:53;100810.77;;;30.18;63.75
45441;BME280;31189;38.790;-77.084;2023-07-08T10:15:15;100812.81;;;30.30;63.27
45441;BME280;31189;38.790;-77.084;2023-07-08T10:17:37;100817.03;;;30.31;63.21
45441;BME280;31189;38.790;-77.084;2023-07-08T10:20:00;100823.24;;;30.54;62.86
45441;BME280;31189;38.790;-77.084;2023-07-08T10:22:35;100823.16;;;30.65;62.52
45441;BME280;31189;38.790;-77.084;2023-07-08T10:25:01;100820.94;;;30.44;62.45
45441;BME280;31189;38.790;-77.084;2023-07-08T10:27:22;100822.72;;;30.60;62.00
45441;BME280;31189;38.790;-77.084;2023-07-08T10:29:47;100828.73;;;30.85;62.12
45441;BME280;31189;38.790;-77.084;2023-07-08T10:32:15;100835.90;;;30.73;61.60
45441;BME280;31189;38.790;-77.084;2023-07-08T10:34:42;100837.57;;;30.81;61.25
45441;BME280;31189;38.790;-77.084;2023-07-08T10:37:05;100837.28;;;31.13;61.22
45441;BME280;31189;38.790;-77.084;2023-07-08T10:39:39;100838.50;;;30.96;61.10
45441;BME280;31189;38.790;-77.084;2023-07-08T10:41:56;100842.26;;;31.01;60.68
45441;BME280;31189;38.790;-77.084;2023-07-08T10:44:21;100847.19;;;31.24;61.08
45441;BME280;31189;38.790;-77.084;2023-07-08T10:46:49;100845.66;;;30.96;61.74
45441;BME280;31189;38.790;-77.084;2023-07-08T10:49:22;100846.69;;;31.21;61.91
45441;BME280;31189;38.790;-77.084;2023-07-08T10:51:37;100850.51;;;31.03;61.75
45441;BME280;31189;38.790;-77.084;2023-07-08T10:54:09;100854.21;;;30.90;62.20
45441;BME280;31189;38.790;-77.084;2023-07-08T10:56:26;100855.03;;;30.94;61.85
45441;BME280;31189;38.790;-77.084;2023-07-08T11:01:23;100856.37;;;30.80;61.29
45441;BME280;31189;38.790;-77.084;2023-07-08T11:03:50;100858.00;;;31.33;61.02
45441;BME280;31189;38.790;-77.084;2023-07-08T11:06:10;100857.76;;;31.23;61.95
45441;BME280;31189;38.790;-77.084;2023-07-08T11:08:32;100856.20;;;31.04;61.29
45441;BME280;31189;38.790;-77.084;2023-07-08T11:10:58;100857.20;;;31.10;61.04
45441;BME280;31189;38.790;-77.084;2023-07-08T11:13:22;100855.27;;;31.44;60.27
45441;BME280;31189;38.790;-77.084;2023-07-08T11:15:51;100855.10;;;31.52;60.37
45441;BME280;31189;38.790;-77.084;2023-07-08T11:18:16;100852.88;;;31.06;61.36
45441;BME280;31189;38.790;-77.084;2023-07-08T11:20:39;100857.96;;;31.47;60.72
45441;BME280;31189;38.790;-77.084;2023-07-08T11:23:06;100860.31;;;30.95;61.26
45441;BME280;31189;38.790;-77.084;2023-07-08T11:25:28;100863.57;;;30.78;62.33
45441;BME280;31189;38.790;-77.084;2023-07-08T11:27:56;100862.87;;;30.91;61.81
45441;BME280;31189;38.790;-77.084;2023-07-08T11:30:21;100862.93;;;30.48;63.00
45441;BME280;31189;38.790;-77.084;2023-07-08T11:32:45;100862.60;;;30.73;62.64
45441;BME280;31189;38.790;-77.084;2023-07-08T11:35:17;100863.15;;;30.49;62.91
45441;BME280;31189;38.790;-77.084;2023-07-08T11:37:34;100864.34;;;30.55;63.01
45441;BME280;31189;38.790;-77.084;2023-07-08T11:40:06;100866.72;;;30.91;62.52
45441;BME280;31189;38.790;-77.084;2023-07-08T11:42:32;100863.21;;;30.83;62.30
45441;BME280;31189;38.790;-77.084;2023-07-08T11:44:54;100862.28;;;30.58;62.39
45441;BME280;31189;38.790;-77.084;2023-07-08T11:47:18;100860.39;;;30.51;62.69
45441;BME280;31189;38.790;-77.084;2023-07-08T11:49:41;100861.83;;;30.32;63.84
45441;BME280;31189;38.790;-77.084;2023-07-08T11:52:14;100860.52;;;30.14;64.55
45441;BME280;31189;38.790;-77.084;2023-07-08T11:54:35;100864.73;;;30.75;63.08
45441;BME280;31189;38.790;-77.084;2023-07-08T11:57:00;100866.82;;;30.64;63.16
45441;BME280;31189;38.790;-77.084;2023-07-08T11:59:24;100873.34;;;31.00;61.97
45441;BME280;31189;38.790;-77.084;2023-07-08T12:01:54;100874.01;;;30.37;63.38
45441;BME280;31189;38.790;-77.084;2023-07-08T12:04:26;100874.50;;;30.47;63.70
45441;BME280;31189;38.790;-77.084;2023-07-08T12:06:46;100877.95;;;30.44;63.57
45441;BME280;31189;38.790;-77.084;2023-07-08T12:09:15;100881.08;;;30.73;61.77
45441;BME280;31189;38.790;-77.084;2023-07-08T12:11:33;100881.75;;;30.91;61.75
45441;BME280;31189;38.790;-77.084;2023-07-08T12:13:59;100878.11;;;30.60;62.44
45441;BME280;31189;38.790;-77.084;2023-07-08T12:16:22;100880.44;;;30.31;63.72
45441;BME280;31189;38.790;-77.084;2023-07-08T12:18:47;100886.49;;;29.73;65.18
45441;BME280;31189;38.790;-77.084;2023-07-08T12:21:13;100886.82;;;28.76;67.15
45441;BME280;31189;38.790;-77.084;2023-07-08T12:23:43;100888.17;;;29.43;67.31
45441;BME280;31189;38.790;-77.084;2023-07-08T12:26:04;100886.49;;;30.03;67.11